MET'MAP v2.0
soon released !

Expected late october,
this new version will be
more efficient, smarter,
and hosted on a brand new
server x3 powerfull...
...and still free !


Not compatible ?
Try the mobile version !

LOG IN : | Subscribe | Disclaimer | Who is Orbifly ? |
ICAO code :

TAF - LIPO Montichiari Airport - Brescia - 20 Nov 2019 18:00 UTC
Data Sources :     NOAA   


- Airport Elevation : 355 ft
- IATA code : VBS
- No reported NOTAMs.


LIPO - Montichiari Airport - Brescia

Latest METAR recorded : 2015/08/11 07:50 LIPO 110750Z 27003KT CAVOK 25/18 Q1013
TAF TAF LIPO
Valid from the 20 at 12:00 until the 21 at 12:00 UTC


201100Z 2012/2112 VRB05KT 6000 SCT050
TEMPO 2012/2016 27010KT
BECMG 2021/2024 2500 BR
TEMPO 2100/2107 1200 BCFG
BECMG 2107/2110 6000

Source NOAA


MET'MAP, your aeronautical weather chart ! - Copyright ORBIFLY December 2007

Programming & Development : Alexandra Zaïnal
Co-Developer : Marc-Olivier Méhu
Technical & hardware support : Manuel Goepfert
Concept & Financing : Baudouin d'Aumeries